Aeroporto :
LOGIN :

Iscrizione | Disclaimer

   EN    FR    IT 

 










Sommario :    VFR   VFR Marginale   IFR   IFR Intensivo   IFR Molto Intensivo
Visibilità : 
Base nubi : 
>= 8 km
>= 3000ft
5 / 8 km
1000 / 3000 ft
1500m / 5 km
500 / 1000 ft
800 / 1500m
200 / 500 ft
< 800m
< 200 ft
Simboli :   Temporali  Nebbia  Neve Forte  Precipitazioni Forti  Vento > 20 kt
SIGMETs :   Varie  Temporali  Ghiacco  Turbolenza  Onda orograficha  Ceneri Vulcaniche






- Altitudine del aeroporto : 1585 ft
- Codice IATA : SIR


LSGS - Sion

ULTIMO METAR :
  • 031350Z 25014KT 9999 SCT130 28/07 Q1003

METARs OBSOLETI :
  • 031320Z 22008KT 190V280 9999 SCT130 27/09 Q1003
  • 031250Z 23007KT 190V290 9999 SCT130 26/09 Q1004
  • 031220Z 25011KT 9999 SCT130 25/09 Q1005
  • 031150Z 25010KT 220V290 9999 SCT120 26/09 Q1005
  • 031120Z 25010KT 210V290 9999 SCT120 26/07 Q1006

TAF TAF LSGS
Valido dal 03 a 12 ore il 03 a 21 ore UTC


031125Z 0312/0321 25012KT 9999 SCT100
TEMPO 0312/0318 SHRA SCT070
PROB40
TEMPO 0313/0318 26020G30KT TS SCT070CB



MetMap, La meteo Aeronautica in un colpo d'occhio ! - Copyright ORBIFLY Dicembre 2007 - Disclaimer

ORBIFLY MET'MAP TEAM :

Programmazione e sviluppo : Alexandra Zaïnal
Concezione : Baudouin d'Aumeries
Aiuto per la programmazione : Marc-Olivier Méhu
Supporto tecnico e logistico : Manuel Goepfert
Aiuto per la traduzione : Arnaldo La Scala

Contatto : metmap@orbifly.com




FONTI E CREDITI :

   NOAA